Time;durP1;ratioP1;P1;durP2;ratioP2;P2;SDS_P1;SDS_P2;PMS_P1;PMS_P2;Temp;Humidity;BMP_temperature;BMP_pressure;BME280_temperature;BME280_humidity;BME280_pressure;Samples;Min_cycle;Max_cycle;Signal;HPM_P1;HPM_P2
2023/05/20 00:01:21;;;;;;;17.40;11.70;;;;;;;;;;110682;1247;22504;-79
2023/05/20 00:03:47;;;;;;;18.50;11.90;;;;;;;;;;110795;1247;22424;-79
2023/05/20 00:06:14;;;;;;;16.50;11.10;;;;;;;;;;110795;1247;22465;-81
2023/05/20 00:08:40;;;;;;;15.10;11.30;;;;;;;;;;110819;1247;24119;-81
2023/05/20 00:11:06;;;;;;;16.00;11.40;;;;;;;;;;110739;1247;22387;-77
2023/05/20 00:13:34;;;;;;;14.40;10.70;;;;;;;;;;110778;1247;22524;-79
2023/05/20 00:16:01;;;;;;;19.70;11.60;;;;;;;;;;110799;1247;23060;-77
2023/05/20 00:18:27;;;;;;;16.70;11.40;;;;;;;;;;110802;1247;22867;-79
2023/05/20 00:20:54;;;;;;;15.60;10.90;;;;;;;;;;110768;1247;22317;-77
2023/05/20 00:23:20;;;;;;;19.40;10.50;;;;;;;;;;110820;1247;22540;-79
2023/05/20 00:25:46;;;;;;;14.50;10.90;;;;;;;;;;110793;1248;22309;-79
2023/05/20 00:28:13;;;;;;;16.20;10.60;;;;;;;;;;110770;1247;22506;-77
2023/05/20 00:30:40;;;;;;;16.70;11.20;;;;;;;;;;110730;1249;22421;-79
2023/05/20 00:33:07;;;;;;;16.40;10.30;;;;;;;;;;110678;1250;22349;-77
2023/05/20 00:35:33;;;;;;;15.80;9.90;;;;;;;;;;110548;1250;23117;-77
2023/05/20 00:37:59;;;;;;;15.30;9.80;;;;;;;;;;110717;1250;23059;-77
2023/05/20 00:40:26;;;;;;;16.60;10.30;;;;;;;;;;110647;1249;22536;-81
2023/05/20 00:42:52;;;;;;;14.40;9.40;;;;;;;;;;110682;1250;22928;-79
2023/05/20 00:45:18;;;;;;;14.00;10.10;;;;;;;;;;110626;1250;23025;-77
2023/05/20 00:47:45;;;;;;;14.80;10.50;;;;;;;;;;110739;1247;22336;-77
2023/05/20 00:50:11;;;;;;;15.10;10.50;;;;;;;;;;110798;1247;22227;-77
2023/05/20 00:52:37;;;;;;;13.30;9.60;;;;;;;;;;110825;1247;22430;-77
2023/05/20 00:55:04;;;;;;;16.90;11.70;;;;;;;;;;110795;1247;22443;-79
2023/05/20 00:57:30;;;;;;;16.40;11.20;;;;;;;;;;110605;1250;22559;-77
2023/05/20 00:59:57;;;;;;;17.30;11.30;;;;;;;;;;110618;1250;22768;-79
2023/05/20 01:02:24;;;;;;;14.30;9.60;;;;;;;;;;110662;1250;23092;-77
2023/05/20 01:04:50;;;;;;;13.70;10.10;;;;;;;;;;110722;1250;22402;-79
2023/05/20 01:07:17;;;;;;;15.70;12.90;;;;;;;;;;110748;1249;22424;-79
2023/05/20 01:09:43;;;;;;;14.40;11.20;;;;;;;;;;110691;1250;22433;-79
2023/05/20 01:12:17;;;;;;;16.30;12.10;;;;;;;;;;110685;1251;22748;-79
2023/05/20 01:14:47;;;;;;;16.70;13.10;;;;;;;;;;110726;1250;22450;-79
2023/05/20 01:17:16;;;;;;;15.30;11.00;;;;;;;;;;110693;1249;22450;-77
2023/05/20 01:19:45;;;;;;;14.20;9.30;;;;;;;;;;110706;1249;22567;-79
2023/05/20 01:22:12;;;;;;;14.20;9.20;;;;;;;;;;110535;1253;22243;-77
2023/05/20 01:24:41;;;;;;;15.30;10.10;;;;;;;;;;110710;1250;23645;-77
2023/05/20 01:27:09;;;;;;;14.40;9.50;;;;;;;;;;110710;1250;22456;-79
2023/05/20 01:29:39;;;;;;;14.90;9.90;;;;;;;;;;110520;1250;22428;-79
2023/05/20 01:32:06;;;;;;;15.40;9.80;;;;;;;;;;110755;1249;23208;-79
2023/05/20 01:34:34;;;;;;;14.30;10.10;;;;;;;;;;110685;1249;22415;-77
2023/05/20 01:37:01;;;;;;;16.60;11.60;;;;;;;;;;110712;1250;22468;-79
2023/05/20 01:39:27;;;;;;;17.60;13.80;;;;;;;;;;110465;1251;22491;-77
2023/05/20 01:41:54;;;;;;;16.60;13.00;;;;;;;;;;110671;1249;22465;-79
2023/05/20 01:44:20;;;;;;;14.60;9.20;;;;;;;;;;110743;1249;22305;-77
2023/05/20 01:46:49;;;;;;;14.60;9.80;;;;;;;;;;110701;1250;22419;-79
2023/05/20 01:49:16;;;;;;;15.00;10.60;;;;;;;;;;110998;1247;22438;-79
2023/05/20 01:51:42;;;;;;;17.90;10.20;;;;;;;;;;111017;1247;22240;-77
2023/05/20 01:54:08;;;;;;;15.10;9.90;;;;;;;;;;110987;1247;22326;-79
2023/05/20 01:56:35;;;;;;;15.70;10.40;;;;;;;;;;110987;1247;22842;-79
2023/05/20 01:59:01;;;;;;;14.60;9.90;;;;;;;;;;110770;1250;144569;-77
2023/05/20 02:01:28;;;;;;;14.80;9.70;;;;;;;;;;110701;1253;23322;-80
2023/05/20 02:03:54;;;;;;;16.20;11.90;;;;;;;;;;110907;1249;22661;-77
2023/05/20 02:06:20;;;;;;;18.20;13.50;;;;;;;;;;110898;1249;22132;-77
2023/05/20 02:08:47;;;;;;;14.70;10.30;;;;;;;;;;110775;1250;23029;-80
2023/05/20 02:11:13;;;;;;;14.90;9.50;;;;;;;;;;110936;1249;22480;-79
2023/05/20 02:13:39;;;;;;;19.70;14.50;;;;;;;;;;110920;1250;22674;-77
2023/05/20 02:16:06;;;;;;;19.00;13.50;;;;;;;;;;110869;1249;22392;-77
2023/05/20 02:18:34;;;;;;;14.50;11.10;;;;;;;;;;110903;1250;22376;-79
2023/05/20 02:21:03;;;;;;;17.40;11.80;;;;;;;;;;110878;1249;22258;-79
2023/05/20 02:23:30;;;;;;;16.90;10.40;;;;;;;;;;110900;1250;22454;-77
2023/05/20 02:25:56;;;;;;;14.10;9.60;;;;;;;;;;110896;1249;22157;-79
2023/05/20 02:28:23;;;;;;;13.80;10.20;;;;;;;;;;110934;1250;22447;-77
2023/05/20 02:30:52;;;;;;;14.30;10.30;;;;;;;;;;110887;1249;22326;-77
2023/05/20 02:33:18;;;;;;;15.20;10.30;;;;;;;;;;110940;1249;22383;-77
2023/05/20 02:35:45;;;;;;;15.60;10.30;;;;;;;;;;110861;1249;22369;-77
2023/05/20 02:38:11;;;;;;;16.00;11.00;;;;;;;;;;110951;1249;22371;-79
2023/05/20 02:40:38;;;;;;;16.20;9.70;;;;;;;;;;110831;1250;22350;-79
2023/05/20 02:43:04;;;;;;;13.10;8.90;;;;;;;;;;110957;1249;22216;-77
2023/05/20 02:45:30;;;;;;;13.40;10.70;;;;;;;;;;110870;1250;22824;-79
2023/05/20 02:47:57;;;;;;;14.90;11.90;;;;;;;;;;110926;1250;22361;-79
2023/05/20 02:50:23;;;;;;;15.30;11.30;;;;;;;;;;110947;1249;23072;-79
2023/05/20 02:52:50;;;;;;;17.00;10.50;;;;;;;;;;110865;1249;22178;-77
2023/05/20 02:55:16;;;;;;;22.70;14.30;;;;;;;;;;110643;1249;22531;-77
2023/05/20 02:57:42;;;;;;;24.00;16.20;;;;;;;;;;110732;1249;22965;-77
2023/05/20 03:00:09;;;;;;;22.60;13.00;;;;;;;;;;110641;1250;22300;-77
2023/05/20 03:02:36;;;;;;;28.30;14.80;;;;;;;;;;110612;1247;22506;-77
2023/05/20 03:05:04;;;;;;;20.70;12.40;;;;;;;;;;110780;1247;22470;-79
2023/05/20 03:07:33;;;;;;;20.00;12.40;;;;;;;;;;110792;1247;23901;-77
2023/05/20 03:09:59;;;;;;;;;;;;;;;;;;110917;1247;23192;-77
2023/05/20 03:12:25;;;;;;;20.20;12.30;;;;;;;;;;111027;1247;22495;-78
2023/05/20 03:14:54;;;;;;;18.60;11.20;;;;;;;;;;110975;1247;22209;-79
2023/05/20 03:17:20;;;;;;;15.80;8.20;;;;;;;;;;111047;1247;22361;-77
2023/05/20 03:19:47;;;;;;;11.40;8.30;;;;;;;;;;110979;1247;22898;-79
2023/05/20 03:22:13;;;;;;;14.10;9.60;;;;;;;;;;110899;1247;22325;-79
2023/05/20 03:24:39;;;;;;;13.10;9.90;;;;;;;;;;110983;1248;22475;-79
2023/05/20 03:27:06;;;;;;;15.80;10.40;;;;;;;;;;111011;1247;22350;-77
2023/05/20 03:29:32;;;;;;;14.10;10.10;;;;;;;;;;110970;1249;22165;-77
2023/05/20 03:31:58;;;;;;;13.20;8.60;;;;;;;;;;110892;1249;22501;-77
2023/05/20 03:34:27;;;;;;;9.90;6.90;;;;;;;;;;110851;1249;22926;-77
2023/05/20 03:36:53;;;;;;;11.20;7.50;;;;;;;;;;110962;1249;22369;-77
2023/05/20 03:39:19;;;;;;;10.80;7.60;;;;;;;;;;110836;1250;22342;-79
2023/05/20 03:41:46;;;;;;;13.30;9.70;;;;;;;;;;110919;1249;22351;-77
2023/05/20 03:44:12;;;;;;;11.30;9.30;;;;;;;;;;110628;1251;22319;-80
2023/05/20 03:46:38;;;;;;;13.70;12.10;;;;;;;;;;110683;1250;22417;-78
2023/05/20 03:49:05;;;;;;;15.80;12.00;;;;;;;;;;110582;1247;22186;-79
2023/05/20 03:51:31;;;;;;;10.80;8.10;;;;;;;;;;110803;1247;22227;-79
2023/05/20 03:53:57;;;;;;;11.80;7.70;;;;;;;;;;110783;1247;22434;-77
2023/05/20 03:56:25;;;;;;;9.80;7.60;;;;;;;;;;110816;1247;22350;-79
2023/05/20 03:58:52;;;;;;;9.70;6.90;;;;;;;;;;110628;1250;23391;-79
2023/05/20 04:01:20;;;;;;;12.40;7.60;;;;;;;;;;110662;1249;22532;-79
2023/05/20 04:03:46;;;;;;;12.20;8.10;;;;;;;;;;110657;1250;22292;-77
2023/05/20 04:06:12;;;;;;;9.90;7.20;;;;;;;;;;110666;1250;22477;-77
2023/05/20 04:08:39;;;;;;;9.30;6.90;;;;;;;;;;110652;1251;22728;-77
2023/05/20 04:11:05;;;;;;;11.80;7.30;;;;;;;;;;110729;1250;22410;-77
2023/05/20 04:13:32;;;;;;;11.00;8.10;;;;;;;;;;110639;1250;22956;-80
2023/05/20 04:16:00;;;;;;;9.60;7.10;;;;;;;;;;110642;1249;23882;-77
2023/05/20 04:18:30;;;;;;;9.60;7.40;;;;;;;;;;110654;1250;22962;-80
2023/05/20 04:20:57;;;;;;;11.10;6.90;;;;;;;;;;110593;1251;22566;-77
2023/05/20 04:23:24;;;;;;;10.00;7.10;;;;;;;;;;110698;1250;23245;-79
2023/05/20 04:25:50;;;;;;;9.60;6.90;;;;;;;;;;110655;1249;23108;-77
2023/05/20 04:28:16;;;;;;;10.60;6.70;;;;;;;;;;110666;1250;22594;-77
2023/05/20 04:30:44;;;;;;;11.30;6.70;;;;;;;;;;110642;1250;22611;-77
2023/05/20 04:33:10;;;;;;;9.70;6.70;;;;;;;;;;110718;1249;22443;-79
2023/05/20 04:35:40;;;;;;;10.50;6.80;;;;;;;;;;110640;1249;22313;-77
2023/05/20 04:38:07;;;;;;;10.10;6.80;;;;;;;;;;110702;1250;23085;-77
2023/05/20 04:40:33;;;;;;;10.00;6.20;;;;;;;;;;110608;1250;22331;-77
2023/05/20 04:43:00;;;;;;;9.70;7.00;;;;;;;;;;110691;1249;22285;-79
2023/05/20 04:45:26;;;;;;;12.00;7.20;;;;;;;;;;110624;1249;23147;-77
2023/05/20 04:47:53;;;;;;;10.60;7.40;;;;;;;;;;110740;1247;22250;-77
2023/05/20 04:50:20;;;;;;;8.20;6.60;;;;;;;;;;110799;1247;22659;-77
2023/05/20 04:52:48;;;;;;;11.70;6.40;;;;;;;;;;110816;1248;22266;-79
2023/05/20 04:55:14;;;;;;;9.00;6.50;;;;;;;;;;110798;1247;22477;-79
2023/05/20 04:57:41;;;;;;;10.40;6.10;;;;;;;;;;110752;1249;22553;-77
2023/05/20 05:00:09;;;;;;;8.20;6.20;;;;;;;;;;110639;1249;23062;-77
2023/05/20 05:02:35;;;;;;;9.80;6.50;;;;;;;;;;110715;1250;22293;-79
2023/05/20 05:05:02;;;;;;;24.60;9.20;;;;;;;;;;110634;1249;22428;-77
2023/05/20 05:07:28;;;;;;;9.50;6.30;;;;;;;;;;110701;1250;22346;-77
2023/05/20 05:09:55;;;;;;;8.60;6.40;;;;;;;;;;110633;1250;22463;-79
2023/05/20 05:12:21;;;;;;;8.60;6.30;;;;;;;;;;110736;1249;22588;-79
2023/05/20 05:14:47;;;;;;;6.90;5.70;;;;;;;;;;110617;1251;22412;-79
2023/05/20 05:17:14;;;;;;;10.70;6.50;;;;;;;;;;110691;1249;22501;-77
2023/05/20 05:19:40;;;;;;;9.40;5.80;;;;;;;;;;110620;1250;22348;-77
2023/05/20 05:22:07;;;;;;;9.40;6.10;;;;;;;;;;110699;1249;22497;-79
2023/05/20 05:24:33;;;;;;;9.00;6.90;;;;;;;;;;110615;1250;22379;-77
2023/05/20 05:26:59;;;;;;;8.50;5.80;;;;;;;;;;110682;1250;22374;-77
2023/05/20 05:29:26;;;;;;;8.40;5.70;;;;;;;;;;110690;1250;22205;-77
2023/05/20 05:31:52;;;;;;;9.20;6.10;;;;;;;;;;110688;1249;22329;-79
2023/05/20 05:34:18;;;;;;;9.80;6.50;;;;;;;;;;110618;1250;22895;-77
2023/05/20 05:36:45;;;;;;;9.20;6.00;;;;;;;;;;110696;1249;22493;-80
2023/05/20 05:39:11;;;;;;;9.40;5.80;;;;;;;;;;110671;1250;22668;-77
2023/05/20 05:41:37;;;;;;;8.80;5.10;;;;;;;;;;110654;1250;22330;-79
2023/05/20 05:44:04;;;;;;;10.30;5.70;;;;;;;;;;110644;1250;22849;-77
2023/05/20 05:46:31;;;;;;;8.20;6.30;;;;;;;;;;110689;1249;22499;-77
2023/05/20 05:48:57;;;;;;;8.60;6.20;;;;;;;;;;110747;1248;22305;-80
2023/05/20 05:51:26;;;;;;;7.70;5.40;;;;;;;;;;110816;1247;22513;-77
2023/05/20 05:53:53;;;;;;;6.10;5.20;;;;;;;;;;110797;1247;22550;-79
2023/05/20 05:56:20;;;;;;;9.20;5.90;;;;;;;;;;110792;1248;22361;-77
2023/05/20 05:58:47;;;;;;;9.20;5.60;;;;;;;;;;110640;1250;22463;-77
2023/05/20 06:01:13;;;;;;;8.20;6.50;;;;;;;;;;110668;1249;23174;-77
2023/05/20 06:03:39;;;;;;;7.80;6.10;;;;;;;;;;110631;1250;22476;-79
2023/05/20 06:06:06;;;;;;;7.40;5.60;;;;;;;;;;110694;1250;22660;-78
2023/05/20 06:08:32;;;;;;;6.80;5.80;;;;;;;;;;110669;1249;22251;-77
2023/05/20 06:10:58;;;;;;;7.30;5.90;;;;;;;;;;110652;1249;22286;-79
2023/05/20 06:13:25;;;;;;;10.50;5.50;;;;;;;;;;110709;1250;23018;-78
2023/05/20 06:15:52;;;;;;;8.10;6.00;;;;;;;;;;110624;1250;22486;-77
2023/05/20 06:18:18;;;;;;;13.80;9.20;;;;;;;;;;110628;1253;23177;-80
2023/05/20 06:20:45;;;;;;;8.70;7.00;;;;;;;;;;110665;1249;22453;-77
2023/05/20 06:23:11;;;;;;;7.00;5.90;;;;;;;;;;110670;1250;23013;-79
2023/05/20 06:25:37;;;;;;;6.70;5.40;;;;;;;;;;110626;1253;22536;-77
2023/05/20 06:28:04;;;;;;;8.20;6.00;;;;;;;;;;110712;1249;22437;-77
2023/05/20 06:30:30;;;;;;;7.70;5.30;;;;;;;;;;110624;1249;22416;-80
2023/05/20 06:32:56;;;;;;;9.80;7.10;;;;;;;;;;110707;1251;22344;-79
2023/05/20 06:35:23;;;;;;;14.80;8.60;;;;;;;;;;110637;1249;22579;-79
2023/05/20 06:37:49;;;;;;;10.90;8.20;;;;;;;;;;110687;1249;23194;-80
2023/05/20 06:40:15;;;;;;;9.90;7.60;;;;;;;;;;110650;1250;22408;-79
2023/05/20 06:42:43;;;;;;;10.00;7.40;;;;;;;;;;110658;1249;22572;-78
2023/05/20 06:45:09;;;;;;;10.40;7.50;;;;;;;;;;110677;1249;24151;-77
2023/05/20 06:47:36;;;;;;;8.20;6.80;;;;;;;;;;110731;1247;23189;-80
2023/05/20 06:50:02;;;;;;;13.20;8.70;;;;;;;;;;110667;1250;22606;-77
2023/05/20 06:52:29;;;;;;;13.20;9.40;;;;;;;;;;110619;1249;22860;-80
2023/05/20 06:54:55;;;;;;;13.70;9.20;;;;;;;;;;110620;1250;22293;-80
2023/05/20 06:57:21;;;;;;;12.30;9.60;;;;;;;;;;110661;1249;22325;-80
2023/05/20 06:59:48;;;;;;;9.40;6.90;;;;;;;;;;110635;1249;22352;-80
2023/05/20 07:02:14;;;;;;;10.90;7.90;;;;;;;;;;110559;1250;23919;-77
2023/05/20 07:04:41;;;;;;;9.10;7.10;;;;;;;;;;110638;1250;22989;-77
2023/05/20 07:07:07;;;;;;;11.80;8.70;;;;;;;;;;110515;1250;22780;-77
2023/05/20 07:09:33;;;;;;;8.40;6.00;;;;;;;;;;110606;1248;22345;-77
2023/05/20 07:12:00;;;;;;;16.50;10.50;;;;;;;;;;110700;1247;22438;-77
2023/05/20 07:14:27;;;;;;;11.80;7.50;;;;;;;;;;110653;1250;22580;-77
2023/05/20 07:16:53;;;;;;;8.30;6.30;;;;;;;;;;110657;1250;22780;-79
2023/05/20 07:19:19;;;;;;;10.00;7.60;;;;;;;;;;110691;1249;22109;-80
2023/05/20 07:21:46;;;;;;;8.20;6.00;;;;;;;;;;110677;1250;22578;-77
2023/05/20 07:24:12;;;;;;;9.00;8.00;;;;;;;;;;110713;1248;22497;-79
2023/05/20 07:26:38;;;;;;;11.50;8.60;;;;;;;;;;110726;1248;22431;-77
2023/05/20 07:29:05;;;;;;;8.50;7.00;;;;;;;;;;110778;1249;22567;-77
2023/05/20 07:31:31;;;;;;;10.40;7.30;;;;;;;;;;110663;1249;23018;-77
2023/05/20 07:33:57;;;;;;;12.10;8.40;;;;;;;;;;110730;1247;22383;-77
2023/05/20 07:36:27;;;;;;;10.70;7.00;;;;;;;;;;110743;1247;22281;-80
2023/05/20 07:38:53;;;;;;;8.00;7.20;;;;;;;;;;110745;1249;22373;-80
2023/05/20 07:41:20;;;;;;;7.90;6.00;;;;;;;;;;110752;1248;23317;-77
2023/05/20 07:43:46;;;;;;;10.10;6.80;;;;;;;;;;110662;1250;22648;-78
2023/05/20 07:46:12;;;;;;;6.20;5.60;;;;;;;;;;110644;1249;23855;-78
2023/05/20 07:48:39;;;;;;;9.20;6.70;;;;;;;;;;110721;1248;22426;-80
2023/05/20 07:51:05;;;;;;;14.20;7.30;;;;;;;;;;110697;1250;22398;-81
2023/05/20 07:53:32;;;;;;;8.70;5.80;;;;;;;;;;110718;1247;22643;-78
2023/05/20 07:55:58;;;;;;;8.10;6.10;;;;;;;;;;110137;1250;59761;-77
2023/05/20 07:58:25;;;;;;;7.70;5.30;;;;;;;;;;110665;1249;22476;-81
2023/05/20 08:00:52;;;;;;;5.50;4.80;;;;;;;;;;110621;1249;22431;-80
2023/05/20 08:03:18;;;;;;;12.40;8.00;;;;;;;;;;110528;1250;22425;-78
2023/05/20 08:05:45;;;;;;;9.60;6.20;;;;;;;;;;110624;1250;22435;-80
2023/05/20 08:08:11;;;;;;;9.00;6.10;;;;;;;;;;110635;1250;22440;-78
2023/05/20 08:10:37;;;;;;;6.60;5.20;;;;;;;;;;110648;1251;23104;-78
2023/05/20 08:13:04;;;;;;;11.10;5.90;;;;;;;;;;110670;1250;22423;-81
2023/05/20 08:15:30;;;;;;;7.00;5.70;;;;;;;;;;110494;1249;22788;-81
2023/05/20 08:17:56;;;;;;;6.90;6.20;;;;;;;;;;110665;1250;22543;-78
2023/05/20 08:20:25;;;;;;;7.10;5.90;;;;;;;;;;110664;1247;22294;-79
2023/05/20 08:22:51;;;;;;;8.20;5.00;;;;;;;;;;110627;1247;22183;-81
2023/05/20 08:25:17;;;;;;;8.10;4.90;;;;;;;;;;110792;1248;22410;-81
2023/05/20 08:27:44;;;;;;;6.60;5.10;;;;;;;;;;110803;1247;23236;-78
2023/05/20 08:30:10;;;;;;;7.70;5.10;;;;;;;;;;110678;1250;22369;-78
2023/05/20 08:32:36;;;;;;;6.50;4.70;;;;;;;;;;110663;1249;23107;-81
2023/05/20 08:35:03;;;;;;;6.40;4.90;;;;;;;;;;110620;1250;23044;-81
2023/05/20 08:37:29;;;;;;;8.60;4.90;;;;;;;;;;110617;1251;22573;-81
2023/05/20 08:39:56;;;;;;;8.90;4.90;;;;;;;;;;110664;1249;22261;-78
2023/05/20 08:42:23;;;;;;;5.30;4.50;;;;;;;;;;110646;1250;23074;-81
2023/05/20 08:44:52;;;;;;;7.20;4.20;;;;;;;;;;110638;1249;22878;-78
2023/05/20 08:47:20;;;;;;;7.00;4.50;;;;;;;;;;110679;1247;22318;-80
2023/05/20 08:49:47;;;;;;;4.60;3.60;;;;;;;;;;110763;1247;23175;-78
2023/05/20 08:52:15;;;;;;;11.10;5.80;;;;;;;;;;110799;1249;22318;-78
2023/05/20 08:54:45;;;;;;;9.30;5.90;;;;;;;;;;110402;1250;22483;-81
2023/05/20 08:57:12;;;;;;;5.60;4.40;;;;;;;;;;110642;1250;22307;-78
2023/05/20 08:59:40;;;;;;;6.60;4.70;;;;;;;;;;110695;1250;23124;-78
2023/05/20 09:02:07;;;;;;;4.70;4.20;;;;;;;;;;110682;1249;22675;-81
2023/05/20 09:04:34;;;;;;;5.60;5.10;;;;;;;;;;110536;1249;22416;-78
2023/05/20 09:07:00;;;;;;;5.10;4.60;;;;;;;;;;110618;1250;22568;-78
2023/05/20 09:09:26;;;;;;;6.50;5.70;;;;;;;;;;110697;1247;22400;-78
2023/05/20 09:11:53;;;;;;;7.20;5.50;;;;;;;;;;110631;1250;22532;-81
2023/05/20 09:14:19;;;;;;;6.90;5.30;;;;;;;;;;110680;1249;22425;-79
2023/05/20 09:16:46;;;;;;;5.80;5.20;;;;;;;;;;110725;1247;23084;-81
2023/05/20 09:19:13;;;;;;;7.00;5.20;;;;;;;;;;110732;1250;22312;-81
2023/05/20 09:21:40;;;;;;;8.10;5.30;;;;;;;;;;110714;1248;22570;-79
2023/05/20 09:24:06;;;;;;;6.00;5.10;;;;;;;;;;110749;1251;22467;-81
2023/05/20 09:26:33;;;;;;;7.60;5.00;;;;;;;;;;110693;1250;23279;-79
2023/05/20 09:28:59;;;;;;;6.70;5.70;;;;;;;;;;110702;1251;22288;-79
2023/05/20 09:31:35;;;;;;;10.60;7.80;;;;;;;;;;110708;1250;23322;-78
2023/05/20 09:34:01;;;;;;;7.10;5.60;;;;;;;;;;110709;1250;23014;-81
2023/05/20 09:36:28;;;;;;;9.40;5.80;;;;;;;;;;110693;1247;23263;-79
2023/05/20 09:38:55;;;;;;;6.30;5.70;;;;;;;;;;110817;1249;22480;-79
2023/05/20 09:41:22;;;;;;;7.90;5.30;;;;;;;;;;110827;1247;22786;-78
2023/05/20 09:43:49;;;;;;;10.10;5.90;;;;;;;;;;110798;1250;22984;-82
2023/05/20 09:46:15;;;;;;;6.90;5.70;;;;;;;;;;110640;1251;22410;-79
2023/05/20 09:48:42;;;;;;;6.80;6.10;;;;;;;;;;110759;1248;22806;-81
2023/05/20 09:51:08;;;;;;;7.00;5.80;;;;;;;;;;110780;1248;22312;-81
2023/05/20 09:53:34;;;;;;;8.40;6.00;;;;;;;;;;110788;1248;22395;-81
2023/05/20 09:56:01;;;;;;;7.20;6.10;;;;;;;;;;110765;1250;22293;-79
2023/05/20 09:58:27;;;;;;;9.50;6.30;;;;;;;;;;110731;1249;22416;-79
2023/05/20 10:00:54;;;;;;;8.40;6.60;;;;;;;;;;110765;1247;22561;-82
2023/05/20 10:03:20;;;;;;;9.90;6.40;;;;;;;;;;110590;1251;22427;-81
2023/05/20 10:05:48;;;;;;;7.90;6.60;;;;;;;;;;110600;1250;22520;-79
2023/05/20 10:08:15;;;;;;;;;;;;;;;;;;110811;1251;24335;-81
2023/05/20 10:10:44;;;;;;;10.00;6.60;;;;;;;;;;110679;1251;23071;-81
2023/05/20 10:13:20;;;;;;;6.00;5.30;;;;;;;;;;110698;1248;22356;-82
2023/05/20 10:15:51;;;;;;;8.60;6.30;;;;;;;;;;110590;1254;23091;-79
2023/05/20 10:18:28;;;;;;;7.90;7.10;;;;;;;;;;110754;1250;22591;-82
2023/05/20 10:20:54;;;;;;;8.90;6.80;;;;;;;;;;110795;1250;22678;-79
2023/05/20 10:23:21;;;;;;;8.80;6.20;;;;;;;;;;110720;1253;22264;-79
2023/05/20 10:25:52;;;;;;;21.20;18.70;;;;;;;;;;110773;1248;22433;-79
2023/05/20 10:28:31;;;;;;;11.40;8.30;;;;;;;;;;110695;1248;22924;-79
2023/05/20 10:30:58;;;;;;;9.30;7.10;;;;;;;;;;110639;1250;22466;-81
2023/05/20 10:33:27;;;;;;;7.70;6.80;;;;;;;;;;110749;1248;22332;-79
2023/05/20 10:36:01;;;;;;;8.30;7.50;;;;;;;;;;110807;1247;22855;-79
2023/05/20 10:38:27;;;;;;;8.70;7.60;;;;;;;;;;110743;1249;23184;-80
2023/05/20 10:40:56;;;;;;;9.60;7.00;;;;;;;;;;110792;1251;22327;-79
2023/05/20 10:43:27;;;;;;;10.10;7.10;;;;;;;;;;110704;1251;22583;-81
2023/05/20 10:45:54;;;;;;;8.60;7.70;;;;;;;;;;110644;1250;22410;-79
2023/05/20 10:48:24;;;;;;;8.10;6.70;;;;;;;;;;110782;1250;22599;-82
2023/05/20 10:50:55;;;;;;;11.30;7.40;;;;;;;;;;110706;1251;23063;-81
2023/05/20 10:53:22;;;;;;;10.30;7.80;;;;;;;;;;110727;1250;22472;-81
2023/05/20 10:55:53;;;;;;;12.20;8.20;;;;;;;;;;110688;1250;23013;-79
2023/05/20 10:58:23;;;;;;;9.00;8.10;;;;;;;;;;110662;1250;22501;-82
2023/05/20 11:00:53;;;;;;;10.10;8.70;;;;;;;;;;110730;1250;23075;-79
2023/05/20 11:03:20;;;;;;;11.70;8.10;;;;;;;;;;110712;1250;22525;-81
2023/05/20 11:05:47;;;;;;;14.40;9.50;;;;;;;;;;110720;1250;23296;-81
2023/05/20 11:08:13;;;;;;;11.90;8.90;;;;;;;;;;110701;1250;22427;-81
2023/05/20 11:10:40;;;;;;;10.40;8.30;;;;;;;;;;110735;1250;22895;-81
2023/05/20 11:13:07;;;;;;;9.50;7.40;;;;;;;;;;110702;1250;22174;-80
2023/05/20 11:15:33;;;;;;;10.20;8.00;;;;;;;;;;110715;1250;23115;-81
2023/05/20 11:18:00;;;;;;;10.10;7.70;;;;;;;;;;110700;1249;22411;-79
2023/05/20 11:20:27;;;;;;;9.20;8.00;;;;;;;;;;110762;1249;22538;-79
2023/05/20 11:22:53;;;;;;;11.80;8.70;;;;;;;;;;110678;1253;22283;-79
2023/05/20 11:25:20;;;;;;;10.50;8.60;;;;;;;;;;110650;1253;23076;-80
2023/05/20 11:27:46;;;;;;;14.80;8.40;;;;;;;;;;110708;1251;22446;-79
2023/05/20 11:30:15;;;;;;;11.90;8.30;;;;;;;;;;110700;1250;23135;-79
2023/05/20 11:32:42;;;;;;;9.20;7.90;;;;;;;;;;110570;1250;22424;-81
2023/05/20 11:35:22;;;;;;;8.50;6.90;;;;;;;;;;110734;1250;22350;-81
2023/05/20 11:37:56;;;;;;;13.20;8.70;;;;;;;;;;110705;1251;22356;-79
2023/05/20 11:40:23;;;;;;;10.00;8.90;;;;;;;;;;110697;1251;22266;-79
2023/05/20 11:42:51;;;;;;;11.10;8.10;;;;;;;;;;110708;1251;22582;-79
2023/05/20 11:45:17;;;;;;;11.90;8.90;;;;;;;;;;110729;1250;22408;-79
2023/05/20 11:47:44;;;;;;;9.20;8.10;;;;;;;;;;110622;1248;23088;-81
2023/05/20 11:50:16;;;;;;;10.90;8.90;;;;;;;;;;110877;1247;23035;-79
2023/05/20 11:52:42;;;;;;;10.90;8.80;;;;;;;;;;110809;1251;22194;-82
2023/05/20 11:55:09;;;;;;;12.30;8.20;;;;;;;;;;110682;1249;22427;-79
2023/05/20 11:57:37;;;;;;;11.10;9.00;;;;;;;;;;110704;1250;22516;-81
2023/05/20 12:00:06;;;;;;;10.50;8.70;;;;;;;;;;110685;1250;23248;-81
2023/05/20 12:02:32;;;;;;;10.80;9.00;;;;;;;;;;110667;1251;22436;-79
2023/05/20 12:04:58;;;;;;;12.70;9.40;;;;;;;;;;110692;1250;22436;-79
2023/05/20 12:07:25;;;;;;;11.40;9.90;;;;;;;;;;110688;1250;22436;-81
2023/05/20 12:09:51;;;;;;;9.50;8.60;;;;;;;;;;110723;1251;23032;-80
2023/05/20 12:12:21;;;;;;;12.30;9.20;;;;;;;;;;110729;1251;22324;-79
2023/05/20 12:14:47;;;;;;;11.20;9.80;;;;;;;;;;110713;1251;23163;-79
2023/05/20 12:17:13;;;;;;;11.80;9.90;;;;;;;;;;110708;1251;22240;-79
2023/05/20 12:19:40;;;;;;;13.00;11.50;;;;;;;;;;110664;1251;22522;-79
2023/05/20 12:22:06;;;;;;;14.40;10.40;;;;;;;;;;110726;1250;22418;-79
2023/05/20 12:24:32;;;;;;;12.10;9.30;;;;;;;;;;110708;1250;22470;-79
2023/05/20 12:26:59;;;;;;;12.30;10.50;;;;;;;;;;110712;1250;22162;-79
2023/05/20 12:29:25;;;;;;;15.20;11.40;;;;;;;;;;110722;1251;22654;-80
2023/05/20 12:31:51;;;;;;;12.70;10.30;;;;;;;;;;110728;1249;22459;-79
2023/05/20 12:34:18;;;;;;;11.50;10.40;;;;;;;;;;110691;1250;22484;-82
2023/05/20 12:36:45;;;;;;;13.60;10.90;;;;;;;;;;110713;1250;22348;-81
2023/05/20 12:39:12;;;;;;;14.70;10.70;;;;;;;;;;110698;1250;22572;-82
2023/05/20 12:41:39;;;;;;;15.40;10.20;;;;;;;;;;110698;1248;23906;-81
2023/05/20 12:44:05;;;;;;;12.40;11.00;;;;;;;;;;110718;1250;22400;-80
2023/05/20 12:46:31;;;;;;;12.40;11.20;;;;;;;;;;110704;1250;23165;-80
2023/05/20 12:48:58;;;;;;;14.20;12.60;;;;;;;;;;110777;1250;23228;-80
2023/05/20 12:51:24;;;;;;;14.70;11.50;;;;;;;;;;110712;1249;22359;-79
2023/05/20 12:53:50;;;;;;;15.70;11.90;;;;;;;;;;110565;1251;22532;-81
2023/05/20 12:56:18;;;;;;;17.50;11.20;;;;;;;;;;110699;1249;22587;-79
2023/05/20 12:58:44;;;;;;;13.50;11.80;;;;;;;;;;110654;1250;23251;-80
2023/05/20 13:01:11;;;;;;;14.20;11.70;;;;;;;;;;110654;1250;22542;-79
2023/05/20 13:03:37;;;;;;;14.70;11.10;;;;;;;;;;110664;1251;23120;-79
2023/05/20 13:06:03;;;;;;;16.70;13.20;;;;;;;;;;110672;1248;22441;-81
2023/05/20 13:08:30;;;;;;;13.00;11.60;;;;;;;;;;110594;1251;22317;-81
2023/05/20 13:10:56;;;;;;;16.10;11.10;;;;;;;;;;110798;1248;22358;-80
2023/05/20 13:13:23;;;;;;;16.20;11.90;;;;;;;;;;110830;1253;22825;-80
2023/05/20 13:15:49;;;;;;;13.10;11.80;;;;;;;;;;110819;1247;22400;-80
2023/05/20 13:18:15;;;;;;;16.20;12.10;;;;;;;;;;110814;1248;22534;-79
2023/05/20 13:20:42;;;;;;;12.50;11.00;;;;;;;;;;110851;1248;23012;-79
2023/05/20 13:23:08;;;;;;;13.80;11.30;;;;;;;;;;110787;1248;22424;-81
2023/05/20 13:25:35;;;;;;;13.30;11.20;;;;;;;;;;110848;1247;22406;-80
2023/05/20 13:28:02;;;;;;;15.80;11.70;;;;;;;;;;110859;1248;22250;-81
2023/05/20 13:30:28;;;;;;;13.40;10.80;;;;;;;;;;110694;1248;22503;-80
2023/05/20 13:32:55;;;;;;;12.50;11.30;;;;;;;;;;110699;1251;22398;-79
2023/05/20 13:35:21;;;;;;;15.50;11.10;;;;;;;;;;110667;1251;22451;-79
2023/05/20 14:56:10;;;;;;;19.40;11.60;;;;;;;27.54;47.85;98444.45;105544;1291;601677;-82
2023/05/20 14:58:37;;;;;;;15.20;11.30;;;;;;;27.94;46.64;98447.32;108122;1267;57385;-78
2023/05/20 15:01:03;;;;;;;15.50;12.50;;;;;;;27.20;48.00;98447.54;108335;1266;57351;-79
2023/05/20 15:03:30;;;;;;;13.10;11.60;;;;;;;26.48;50.01;98441.43;108367;1266;57246;-81
2023/05/20 15:05:56;;;;;;;13.90;11.00;;;;;;;27.29;48.52;98441.16;108335;1266;71411;-82
2023/05/20 15:08:23;;;;;;;19.10;10.50;;;;;;;27.61;48.02;98447.39;108325;1267;57293;-79
2023/05/20 15:10:49;;;;;;;15.00;9.80;;;;;;;27.46;48.15;98439.83;108410;1264;132790;-79
2023/05/20 15:13:16;;;;;;;14.10;11.00;;;;;;;26.93;49.51;98431.25;108521;1264;59173;-79
2023/05/20 15:15:42;;;;;;;13.40;10.00;;;;;;;27.01;49.57;98433.42;108495;1264;57221;-79
2023/05/20 15:18:09;;;;;;;10.70;9.10;;;;;;;26.90;49.15;98434.16;108515;1264;57378;-81
2023/05/20 15:20:36;;;;;;;17.30;12.10;;;;;;;27.21;47.55;98433.11;108499;1264;72521;-82
2023/05/20 15:23:02;;;;;;;16.90;10.60;;;;;;;26.67;49.01;98428.27;108492;1264;57532;-81
2023/05/20 15:25:29;;;;;;;16.30;10.20;;;;;;;26.22;49.95;98423.33;108435;1264;61426;-81